createdAt,value
2022-11-12T00:01:36.640Z,102676.16
2022-11-12T00:04:22.421Z,102686.06
2022-11-12T00:07:08.340Z,102686.09
2022-11-12T00:09:54.249Z,102681.72
2022-11-12T00:12:39.743Z,102690.66
2022-11-12T00:15:26.364Z,102688.13
2022-11-12T00:18:11.823Z,102690.13
2022-11-12T00:20:57.250Z,102678.75
2022-11-12T00:23:42.749Z,102681.59
2022-11-12T00:26:28.182Z,102688.81
2022-11-12T00:29:13.661Z,102690.91
2022-11-12T00:31:59.164Z,102692.06
2022-11-12T00:34:44.437Z,102684.34
2022-11-12T00:37:30.171Z,102684.59
2022-11-12T00:40:16.149Z,102683.06
2022-11-12T00:43:01.846Z,102693.94
2022-11-12T00:45:47.610Z,102691.38
2022-11-12T00:48:33.141Z,102690.63
2022-11-12T00:51:18.832Z,102693.38
2022-11-12T00:54:05.460Z,102685.41
2022-11-12T00:56:51.314Z,102694.38
2022-11-12T00:59:37.255Z,102692.66
2022-11-12T01:02:22.872Z,102695.38
2022-11-12T01:05:08.968Z,102699.88
2022-11-12T01:07:56.147Z,102694.56
2022-11-12T01:10:41.678Z,102691.09
2022-11-12T01:13:27.380Z,102695.59
2022-11-12T01:16:22.645Z,102695.53
2022-11-12T01:19:11.132Z,102684.19
2022-11-12T01:21:56.778Z,102684.28
2022-11-12T01:24:42.237Z,102688.00
2022-11-12T01:27:27.784Z,102694.28
2022-11-12T01:30:13.404Z,102691.66
2022-11-12T01:32:58.904Z,102698.06
2022-11-12T01:35:44.212Z,102686.59
2022-11-12T01:38:38.270Z,102692.00
2022-11-12T01:41:27.792Z,102700.06
2022-11-12T01:44:26.942Z,102692.41
2022-11-12T01:47:25.758Z,102684.66
2022-11-12T01:50:27.319Z,102683.97
2022-11-12T01:53:13.826Z,102698.34
2022-11-12T01:56:01.008Z,102695.72
2022-11-12T01:58:49.289Z,102685.97
2022-11-12T02:01:36.743Z,102693.16
2022-11-12T02:04:22.860Z,102695.97
2022-11-12T02:07:09.930Z,102694.25
2022-11-12T02:09:55.752Z,102685.41
2022-11-12T02:13:01.133Z,102692.50
2022-11-12T02:15:46.835Z,102688.97
2022-11-12T02:18:32.262Z,102689.91
2022-11-12T02:21:23.328Z,102698.03
2022-11-12T02:24:12.224Z,102698.88
2022-11-12T02:26:58.521Z,102698.03
2022-11-12T02:29:47.103Z,102689.06
2022-11-12T02:32:32.369Z,102706.72
2022-11-12T02:35:17.859Z,102704.94
2022-11-12T02:38:04.548Z,102694.16
2022-11-12T02:40:50.384Z,102699.34
2022-11-12T02:43:36.486Z,102684.09
2022-11-12T02:46:22.253Z,102682.13
2022-11-12T02:49:07.939Z,102685.63
2022-11-12T02:51:53.513Z,102692.72
2022-11-12T02:54:38.816Z,102695.53
2022-11-12T02:57:24.688Z,102691.41
2022-11-12T03:00:12.817Z,102682.03
2022-11-12T03:03:01.734Z,102686.78
2022-11-12T03:05:57.020Z,102679.97
2022-11-12T03:08:42.515Z,102681.06
2022-11-12T03:11:27.914Z,102682.91
2022-11-12T03:14:13.494Z,102690.94
2022-11-12T03:16:58.805Z,102688.22
2022-11-12T03:19:44.493Z,102684.69
2022-11-12T03:22:29.840Z,102682.00
2022-11-12T03:25:15.276Z,102691.78
2022-11-12T03:28:07.287Z,102687.31
2022-11-12T03:30:59.184Z,102684.69
2022-11-12T03:33:45.183Z,102686.41
2022-11-12T03:36:31.176Z,102697.91
2022-11-12T03:39:16.612Z,102692.59
2022-11-12T03:42:02.502Z,102688.16
2022-11-12T03:44:48.212Z,102688.28
2022-11-12T03:47:33.856Z,102685.66
2022-11-12T03:50:23.070Z,102682.22
2022-11-12T03:53:09.318Z,102679.66
2022-11-12T03:55:55.000Z,102678.78
2022-11-12T03:58:40.620Z,102685.06
2022-11-12T04:01:26.148Z,102676.25
2022-11-12T04:04:11.628Z,102681.56
2022-11-12T04:07:15.590Z,102682.47
2022-11-12T04:10:01.347Z,102682.47
2022-11-12T04:13:04.938Z,102684.28
2022-11-12T04:16:10.496Z,102687.81
2022-11-12T04:19:18.178Z,102689.53
2022-11-12T04:22:10.343Z,102684.19
2022-11-12T04:25:14.403Z,102690.34
2022-11-12T04:28:00.388Z,102691.28
2022-11-12T04:30:45.833Z,102691.25
2022-11-12T04:33:31.199Z,102686.81
2022-11-12T04:36:16.936Z,102692.06
2022-11-12T04:39:02.872Z,102687.56
2022-11-12T04:42:06.556Z,102682.22
2022-11-12T04:45:05.030Z,102673.34
2022-11-12T04:47:50.469Z,102682.22
2022-11-12T04:50:36.475Z,102679.56
2022-11-12T04:53:22.256Z,102667.16
2022-11-12T04:56:08.527Z,102676.09
2022-11-12T04:58:53.838Z,102674.31
2022-11-12T05:01:39.371Z,102672.59
2022-11-12T05:04:27.634Z,102663.78
2022-11-12T05:07:14.038Z,102672.66
2022-11-12T05:09:59.511Z,102678.94
2022-11-12T05:12:45.190Z,102682.56
2022-11-12T05:15:30.521Z,102679.94
2022-11-12T05:18:16.060Z,102677.34
2022-11-12T05:21:21.227Z,102680.09
2022-11-12T05:24:07.271Z,102683.72
2022-11-12T05:26:53.527Z,102688.31
2022-11-12T05:29:38.989Z,102680.41
2022-11-12T05:32:24.418Z,102687.56
2022-11-12T05:35:09.741Z,102677.84
2022-11-12T05:37:55.038Z,102681.41
2022-11-12T05:40:45.224Z,102677.94
2022-11-12T05:43:30.763Z,102672.66
2022-11-12T05:46:16.797Z,102670.88
2022-11-12T05:49:02.376Z,102673.59
2022-11-12T05:51:48.110Z,102664.78
2022-11-12T05:54:33.763Z,102663.94
2022-11-12T05:57:19.301Z,102672.78
2022-11-12T06:00:05.169Z,102660.47
2022-11-12T06:02:50.941Z,102675.41
2022-11-12T06:05:37.307Z,102668.34
2022-11-12T06:08:23.266Z,102686.97
2022-11-12T06:11:09.336Z,102678.13
2022-11-12T06:13:54.961Z,102670.16
2022-11-12T06:16:40.385Z,102683.50
2022-11-12T06:19:26.011Z,102682.69
2022-11-12T06:22:11.813Z,102685.44
2022-11-12T06:24:57.170Z,102687.28
2022-11-12T06:27:42.944Z,102688.25
2022-11-12T06:30:28.792Z,102700.69
2022-11-12T06:33:14.167Z,102698.91
2022-11-12T06:36:03.092Z,102692.72
2022-11-12T06:38:49.064Z,102692.72
2022-11-12T06:41:34.975Z,102698.06
2022-11-12T06:44:22.309Z,102715.78
2022-11-12T06:47:09.489Z,102709.53
2022-11-12T06:49:55.418Z,102716.63
2022-11-12T06:52:40.797Z,102714.84
2022-11-12T06:55:26.367Z,102710.47
2022-11-12T06:58:11.785Z,102723.75
2022-11-12T07:00:57.347Z,102725.59
2022-11-12T07:03:44.565Z,102723.81
2022-11-12T07:06:30.341Z,102716.75
2022-11-12T07:09:15.706Z,102714.03
2022-11-12T07:12:01.396Z,102707.88
2022-11-12T07:14:47.088Z,102709.59
2022-11-12T07:17:32.763Z,102706.03
2022-11-12T07:20:18.353Z,102714.84
2022-11-12T07:23:03.698Z,102717.47
2022-11-12T07:26:03.117Z,102723.63
2022-11-12T07:28:51.035Z,102712.97
2022-11-12T07:31:36.481Z,102720.91
2022-11-12T07:34:22.191Z,102719.06
2022-11-12T07:37:08.112Z,102727.91
2022-11-12T07:39:53.601Z,102734.97
2022-11-12T07:42:39.109Z,102727.00
2022-11-12T07:45:24.536Z,102725.94
2022-11-12T07:48:10.067Z,102731.09
2022-11-12T07:51:13.945Z,102724.84
2022-11-12T07:54:00.355Z,102719.44
2022-11-12T07:56:45.731Z,102725.69
2022-11-12T07:59:31.151Z,102728.38
2022-11-12T08:02:17.116Z,102737.19
2022-11-12T08:05:02.730Z,102746.00
2022-11-12T08:07:48.124Z,102736.13
2022-11-12T08:10:34.175Z,102730.81
2022-11-12T08:13:19.626Z,102729.88
2022-11-12T08:16:05.886Z,102738.59
2022-11-12T08:18:51.501Z,102742.84
2022-11-12T08:21:37.056Z,102740.09
2022-11-12T08:24:22.987Z,102735.63
2022-11-12T08:27:08.471Z,102734.78
2022-11-12T08:29:53.807Z,102732.09
2022-11-12T08:32:39.073Z,102740.97
2022-11-12T08:35:26.961Z,102738.06
2022-11-12T08:38:14.061Z,102727.25
2022-11-12T08:41:06.636Z,102722.09
2022-11-12T08:43:52.815Z,102731.69
2022-11-12T08:46:38.325Z,102717.19
2022-11-12T08:49:24.013Z,102707.06
2022-11-12T08:52:09.916Z,102714.13
2022-11-12T08:54:55.411Z,102706.50
2022-11-12T08:57:42.718Z,102715.44
2022-11-12T09:00:30.039Z,102727.66
2022-11-12T09:03:19.816Z,102726.25
2022-11-12T09:06:06.981Z,102732.75
2022-11-12T09:08:52.736Z,102730.91
2022-11-12T09:11:38.316Z,102728.88
2022-11-12T09:14:23.835Z,102739.69
2022-11-12T09:17:09.091Z,102739.06
2022-11-12T09:19:54.613Z,102747.03
2022-11-12T09:22:40.065Z,102745.66
2022-11-12T09:25:26.259Z,102740.56
2022-11-12T09:28:18.652Z,102743.09
2022-11-12T09:31:07.023Z,102741.94
2022-11-12T09:33:53.122Z,102729.28
2022-11-12T09:36:40.063Z,102719.59
2022-11-12T09:39:26.181Z,102720.28
2022-11-12T09:42:20.089Z,102722.19
2022-11-12T09:45:30.389Z,102724.78
2022-11-12T09:48:27.997Z,102722.03
2022-11-12T09:51:27.867Z,102719.75
2022-11-12T09:54:26.537Z,102729.00
2022-11-12T09:57:13.309Z,102731.84
2022-11-12T09:59:58.805Z,102738.22
2022-11-12T10:03:22.482Z,102740.69
2022-11-12T10:06:20.368Z,102746.72
2022-11-12T10:09:16.855Z,102734.09
2022-11-12T10:12:33.906Z,102738.00
2022-11-12T10:15:43.965Z,102731.78
2022-11-12T10:18:58.375Z,102719.09
2022-11-12T10:21:58.312Z,102722.06
2022-11-12T10:24:45.789Z,102724.50
2022-11-12T10:27:41.081Z,102716.41
2022-11-12T10:30:26.682Z,102717.59
2022-11-12T10:33:15.355Z,102730.06
2022-11-12T10:36:23.832Z,102734.69
2022-11-12T10:39:09.369Z,102733.44
2022-11-12T10:42:11.969Z,102718.28
2022-11-12T10:45:21.064Z,102712.97
2022-11-12T10:48:27.604Z,102712.78
2022-11-12T10:51:32.842Z,102717.69
2022-11-12T10:54:27.448Z,102718.78
2022-11-12T10:57:25.708Z,102714.03
2022-11-12T11:00:14.649Z,102703.94
2022-11-12T11:03:21.809Z,102701.06
2022-11-12T11:06:22.878Z,102691.72
2022-11-12T11:09:21.580Z,102694.66
2022-11-12T11:12:34.833Z,102699.41
2022-11-12T11:15:24.354Z,102694.50
2022-11-12T11:18:14.188Z,102701.09
2022-11-12T11:21:27.827Z,102694.34
2022-11-12T11:24:46.873Z,102686.81
2022-11-12T11:27:54.987Z,102687.31
2022-11-12T11:31:05.717Z,102681.66
2022-11-12T11:34:22.646Z,102674.03
2022-11-12T11:37:42.332Z,102667.94
2022-11-12T11:40:38.725Z,102670.06
2022-11-12T11:43:40.252Z,102665.22
2022-11-12T11:47:06.585Z,102673.06
2022-11-12T11:50:08.261Z,102660.75
2022-11-12T11:53:23.116Z,102656.69
2022-11-12T11:56:26.466Z,102651.81
2022-11-12T11:59:32.933Z,102657.09
2022-11-12T12:03:05.653Z,102657.09
2022-11-12T12:06:19.176Z,102653.59
2022-11-12T12:09:19.024Z,102650.97
2022-11-12T12:12:21.715Z,102651.38
2022-11-12T12:16:04.686Z,102647.78
2022-11-12T12:19:13.493Z,102646.00
2022-11-12T12:22:01.483Z,102646.28
2022-11-12T12:24:59.288Z,102646.06
2022-11-12T12:28:00.745Z,102644.97
2022-11-12T12:30:52.616Z,102646.25
2022-11-12T12:33:56.596Z,102645.31
2022-11-12T12:36:44.081Z,102632.50
2022-11-12T12:39:53.037Z,102634.19
2022-11-12T12:42:46.827Z,102629.94
2022-11-12T12:45:45.680Z,102639.38
2022-11-12T12:48:43.159Z,102631.72
2022-11-12T12:51:34.025Z,102627.66
2022-11-12T12:54:51.549Z,102626.03
2022-11-12T12:57:39.687Z,102621.78
2022-11-12T13:00:41.720Z,102618.91
2022-11-12T13:04:08.763Z,102613.66
2022-11-12T13:06:55.566Z,102615.31
2022-11-12T13:09:41.259Z,102618.72
2022-11-12T13:13:08.855Z,102613.06
2022-11-12T13:15:59.413Z,102614.31
2022-11-12T13:18:57.024Z,102610.34
2022-11-12T13:21:44.452Z,102604.78
2022-11-12T13:25:13.407Z,102608.28
2022-11-12T13:28:10.156Z,102611.81
2022-11-12T13:30:58.897Z,102605.88
2022-11-12T13:33:45.291Z,102602.84
2022-11-12T13:36:31.593Z,102602.72
2022-11-12T13:39:20.176Z,102600.31
2022-11-12T13:42:37.031Z,102590.81
2022-11-12T13:45:26.456Z,102601.13
2022-11-12T13:48:29.386Z,102598.72
2022-11-12T13:51:31.976Z,102589.84
2022-11-12T13:54:43.897Z,102603.84
2022-11-12T13:57:32.072Z,102595.75
2022-11-12T14:00:29.572Z,102598.22
2022-11-12T14:03:19.167Z,102591.88
2022-11-12T14:06:49.479Z,102599.94
2022-11-12T14:09:44.392Z,102604.09
2022-11-12T14:12:59.950Z,102608.25
2022-11-12T14:16:03.148Z,102597.06
2022-11-12T14:19:17.558Z,102592.59
2022-11-12T14:22:18.972Z,102585.84
2022-11-12T14:25:16.963Z,102601.50
2022-11-12T14:28:02.761Z,102597.69
2022-11-12T14:30:48.294Z,102593.81
2022-11-12T14:33:33.696Z,102595.19
2022-11-12T14:36:20.236Z,102595.88
2022-11-12T14:39:07.407Z,102593.88
2022-11-12T14:41:54.660Z,102595.81
2022-11-12T14:44:40.399Z,102602.19
2022-11-12T14:47:26.210Z,102603.16
2022-11-12T14:50:27.765Z,102594.16
2022-11-12T14:54:00.033Z,102595.00
2022-11-12T14:56:48.735Z,102598.59
2022-11-12T14:59:35.808Z,102599.47
2022-11-12T15:02:51.250Z,102592.78
2022-11-12T15:06:28.289Z,102591.09
2022-11-12T15:09:21.898Z,102589.34
2022-11-12T15:12:22.381Z,102586.28
2022-11-12T15:15:17.898Z,102585.00
2022-11-12T15:18:07.842Z,102586.38
2022-11-12T15:21:22.485Z,102584.91
2022-11-12T15:24:11.236Z,102592.78
2022-11-12T15:26:59.944Z,102579.97
2022-11-12T15:29:45.628Z,102584.09
2022-11-12T15:33:46.157Z,102588.03
2022-11-12T15:39:21.686Z,102593.69
2022-11-12T15:42:25.096Z,102588.28
2022-11-12T15:45:16.488Z,102599.44
2022-11-12T15:48:02.023Z,102588.59
2022-11-12T15:50:48.224Z,102588.56
2022-11-12T15:53:33.717Z,102577.84
2022-11-12T15:56:23.344Z,102586.91
2022-11-12T15:59:15.533Z,102575.94
2022-11-12T16:02:01.321Z,102585.53
2022-11-12T16:04:46.767Z,102579.06
2022-11-12T16:07:33.414Z,102568.09
2022-11-12T16:10:19.827Z,102574.38
2022-11-12T16:13:06.993Z,102587.00
2022-11-12T16:15:52.882Z,102578.44
2022-11-12T16:18:38.422Z,102590.94
2022-11-12T16:21:24.385Z,102582.59
2022-11-12T16:24:09.764Z,102578.16
2022-11-12T16:26:55.388Z,102578.47
2022-11-12T16:29:41.333Z,102565.31
2022-11-12T16:32:26.946Z,102575.13
2022-11-12T16:35:12.525Z,102573.13
2022-11-12T16:37:58.184Z,102573.00
2022-11-12T16:40:45.588Z,102572.56
2022-11-12T16:43:31.225Z,102578.53
2022-11-12T16:46:31.186Z,102583.41
2022-11-12T16:49:16.955Z,102571.38
2022-11-12T16:52:02.447Z,102579.88
2022-11-12T16:54:47.833Z,102576.38
2022-11-12T16:57:33.446Z,102581.94
2022-11-12T17:00:19.546Z,102578.22
2022-11-12T17:03:05.220Z,102580.47
2022-11-12T17:05:53.733Z,102574.19
2022-11-12T17:08:39.169Z,102575.81
2022-11-12T17:11:24.706Z,102564.72
2022-11-12T17:14:11.006Z,102565.31
2022-11-12T17:16:56.862Z,102559.34
2022-11-12T17:19:42.407Z,102557.06
2022-11-12T17:22:27.965Z,102546.69
2022-11-12T17:25:13.321Z,102555.13
2022-11-12T17:27:59.246Z,102559.00
2022-11-12T17:30:45.009Z,102555.69
2022-11-12T17:33:30.905Z,102546.88
2022-11-12T17:36:27.529Z,102532.00
2022-11-12T17:39:14.042Z,102550.75
2022-11-12T17:41:59.702Z,102556.38
2022-11-12T17:44:46.403Z,102556.69
2022-11-12T17:47:34.615Z,102554.13
2022-11-12T17:50:23.777Z,102567.44
2022-11-12T17:53:09.261Z,102557.81
2022-11-12T17:55:58.652Z,102558.19
2022-11-12T17:58:45.497Z,102559.38
2022-11-12T18:01:32.867Z,102554.28
2022-11-12T18:04:18.485Z,102552.69
2022-11-12T18:07:04.173Z,102553.88
2022-11-12T18:09:50.022Z,102551.44
2022-11-12T18:12:35.420Z,102549.78
2022-11-12T18:15:21.077Z,102547.19
2022-11-12T18:18:06.733Z,102543.91
2022-11-12T18:20:52.089Z,102544.09
2022-11-12T18:23:43.750Z,102546.13
2022-11-12T18:26:29.325Z,102547.22
2022-11-12T18:29:14.602Z,102541.09
2022-11-12T18:32:00.293Z,102544.78
2022-11-12T18:34:46.091Z,102541.25
2022-11-12T18:37:31.678Z,102555.59
2022-11-12T18:40:17.625Z,102542.50
2022-11-12T18:43:02.897Z,102543.69
2022-11-12T18:46:00.711Z,102541.16
2022-11-12T18:48:46.392Z,102540.56
2022-11-12T18:51:32.330Z,102540.84
2022-11-12T18:54:17.800Z,102534.81
2022-11-12T18:57:03.754Z,102531.53
2022-11-12T18:59:51.983Z,102518.31
2022-11-12T19:02:37.569Z,102514.09
2022-11-12T19:05:22.882Z,102512.56
2022-11-12T19:08:08.413Z,102526.97
2022-11-12T19:11:05.247Z,102527.91
2022-11-12T19:13:54.023Z,102527.22
2022-11-12T19:16:44.838Z,102521.16
2022-11-12T19:19:30.415Z,102514.13
2022-11-12T19:22:15.965Z,102519.56
2022-11-12T19:25:04.018Z,102528.34
2022-11-12T19:27:49.423Z,102521.19
2022-11-12T19:30:34.861Z,102516.72
2022-11-12T19:33:20.713Z,102514.13
2022-11-12T19:36:08.905Z,102518.41
2022-11-12T19:39:02.327Z,102520.38
2022-11-12T19:41:48.007Z,102516.94
2022-11-12T19:44:33.759Z,102505.38
2022-11-12T19:47:19.211Z,102509.81
2022-11-12T19:50:04.998Z,102503.63
2022-11-12T19:52:54.393Z,102517.03
2022-11-12T19:55:40.244Z,102506.25
2022-11-12T19:58:26.497Z,102502.66
2022-11-12T20:01:16.054Z,102492.78
2022-11-12T20:04:01.764Z,102491.00
2022-11-12T20:06:47.279Z,102492.84
2022-11-12T20:09:33.210Z,102481.31
2022-11-12T20:12:18.626Z,102486.75
2022-11-12T20:15:04.559Z,102482.31
2022-11-12T20:17:50.267Z,102469.22
2022-11-12T20:20:35.686Z,102475.56
2022-11-12T20:23:23.638Z,102470.34
2022-11-12T20:26:12.196Z,102469.50
2022-11-12T20:28:57.615Z,102462.47
2022-11-12T20:31:43.125Z,102463.19
2022-11-12T20:34:28.779Z,102459.59
2022-11-12T20:37:14.580Z,102454.81
2022-11-12T20:40:00.033Z,102447.38
2022-11-12T20:42:45.939Z,102451.47
2022-11-12T20:45:31.315Z,102446.47
2022-11-12T20:48:16.728Z,102446.97
2022-11-12T20:51:26.885Z,102450.03
2022-11-12T20:54:12.321Z,102456.50
2022-11-12T20:56:59.710Z,102455.25
2022-11-12T20:59:45.559Z,102446.78
2022-11-12T21:02:30.822Z,102454.31
2022-11-12T21:05:16.566Z,102447.28
2022-11-12T21:08:02.034Z,102457.22
2022-11-12T21:10:52.203Z,102444.88
2022-11-12T21:13:39.342Z,102456.38
2022-11-12T21:16:24.721Z,102447.53
2022-11-12T21:19:10.283Z,102446.78
2022-11-12T21:21:56.076Z,102442.75
2022-11-12T21:24:41.467Z,102447.50
2022-11-12T21:27:27.084Z,102440.59
2022-11-12T21:30:12.558Z,102435.56
2022-11-12T21:32:58.047Z,102442.06
2022-11-12T21:35:43.924Z,102443.97
2022-11-12T21:38:30.364Z,102440.69
2022-11-12T21:41:23.160Z,102447.25
2022-11-12T21:44:08.763Z,102443.94
2022-11-12T21:46:54.106Z,102437.06
2022-11-12T21:49:39.674Z,102436.31
2022-11-12T21:52:25.938Z,102434.69
2022-11-12T21:55:11.760Z,102434.81
2022-11-12T21:57:57.805Z,102442.94
2022-11-12T22:00:43.563Z,102438.59
2022-11-12T22:03:35.005Z,102443.06
2022-11-12T22:06:23.913Z,102433.31
2022-11-12T22:09:09.339Z,102437.00
2022-11-12T22:11:54.961Z,102434.13
2022-11-12T22:14:40.433Z,102432.91
2022-11-12T22:17:26.532Z,102423.00
2022-11-12T22:20:12.080Z,102426.91
2022-11-12T22:22:57.667Z,102419.47
2022-11-12T22:25:42.990Z,102424.53
2022-11-12T22:28:28.777Z,102431.22
2022-11-12T22:31:18.589Z,102432.44
2022-11-12T22:34:04.197Z,102425.66
2022-11-12T22:36:49.725Z,102429.63
2022-11-12T22:39:35.121Z,102428.00
2022-11-12T22:42:21.447Z,102416.72
2022-11-12T22:45:08.237Z,102414.22
2022-11-12T22:47:53.996Z,102415.31
2022-11-12T22:50:39.545Z,102403.06
2022-11-12T22:53:25.037Z,102404.97
2022-11-12T22:56:14.094Z,102397.91
2022-11-12T22:59:00.909Z,102399.66
2022-11-12T23:01:46.472Z,102390.91
2022-11-12T23:04:32.014Z,102398.00
2022-11-12T23:07:17.446Z,102390.03
2022-11-12T23:10:03.173Z,102391.03
2022-11-12T23:12:48.854Z,102395.59
2022-11-12T23:15:34.135Z,102394.69
2022-11-12T23:18:19.777Z,102393.06
2022-11-12T23:21:18.062Z,102395.66
2022-11-12T23:24:03.982Z,102395.78
2022-11-12T23:26:49.284Z,102390.53
2022-11-12T23:29:34.882Z,102389.63
2022-11-12T23:32:20.310Z,102390.59
2022-11-12T23:35:06.434Z,102384.47
2022-11-12T23:37:53.374Z,102380.97
2022-11-12T23:40:38.847Z,102378.56
2022-11-12T23:43:24.531Z,102374.06
2022-11-12T23:46:10.886Z,102376.78
2022-11-12T23:48:57.452Z,102376.88
2022-11-12T23:51:43.165Z,102375.03
2022-11-12T23:54:28.692Z,102372.44
2022-11-12T23:57:14.144Z,102380.56
2022-11-12T23:59:59.770Z,102373.56
